Time;durP1;ratioP1;P1;durP2;ratioP2;P2;SDS_P1;SDS_P2;PMS_P1;PMS_P2;Temp;Humidity;BMP_temperature;BMP_pressure;BME280_temperature;BME280_humidity;BME280_pressure;Samples;Min_cycle;Max_cycle;Signal;HPM_P1;HPM_P2
2023/04/20 00:02:14;;;;;;;15.03;8.43;;;;;;;;;;4989299;28;20249;-69
2023/04/20 00:04:41;;;;;;;14.33;9.30;;;;;;;;;;4989627;28;20292;-69
2023/04/20 00:07:09;;;;;;;15.07;8.87;;;;;;;;;;5000492;28;20232;-69
2023/04/20 00:09:35;;;;;;;15.00;8.73;;;;;;;;;;5009396;28;20227;-69
2023/04/20 00:12:02;;;;;;;14.93;9.03;;;;;;;;;;5009006;28;20180;-69
2023/04/20 00:14:29;;;;;;;13.47;8.57;;;;;;;;;;5008948;28;20190;-69
2023/04/20 00:16:56;;;;;;;13.13;9.10;;;;;;;;;;5008953;28;20196;-69
2023/04/20 00:19:24;;;;;;;16.17;8.83;;;;;;;;;;5008817;28;20227;-68
2023/04/20 00:21:51;;;;;;;16.03;8.97;;;;;;;;;;5008978;28;20298;-68
2023/04/20 00:24:18;;;;;;;14.60;9.47;;;;;;;;;;5009341;28;20199;-69
2023/04/20 00:26:45;;;;;;;15.13;9.10;;;;;;;;;;4991028;28;20188;-69
2023/04/20 00:29:11;;;;;;;16.07;8.73;;;;;;;;;;5008806;28;20208;-69
2023/04/20 00:31:38;;;;;;;15.93;8.23;;;;;;;;;;5008411;28;20192;-69
2023/04/20 00:34:05;;;;;;;13.70;8.50;;;;;;;;;;4991028;28;20247;-69
2023/04/20 00:36:32;;;;;;;14.43;8.37;;;;;;;;;;4991306;28;20216;-69
2023/04/20 00:39:00;;;;;;;13.40;7.93;;;;;;;;;;5008873;28;20187;-69
2023/04/20 00:41:27;;;;;;;16.83;8.43;;;;;;;;;;5008298;28;20195;-69
2023/04/20 00:43:55;;;;;;;15.67;9.03;;;;;;;;;;5023490;28;20176;-69
2023/04/20 00:46:21;;;;;;;12.40;8.07;;;;;;;;;;5023590;28;20251;-69
2023/04/20 00:48:49;;;;;;;13.13;8.27;;;;;;;;;;4991116;28;20604;-69
2023/04/20 00:51:16;;;;;;;12.27;7.60;;;;;;;;;;5007145;28;20202;-69
2023/04/20 00:53:43;;;;;;;13.03;8.33;;;;;;;;;;4990609;28;20231;-69
2023/04/20 00:56:10;;;;;;;17.70;8.60;;;;;;;;;;5007023;28;20196;-69
2023/04/20 00:58:40;;;;;;;13.93;8.60;;;;;;;;;;5008732;28;20564;-69
2023/04/20 01:01:07;;;;;;;12.87;7.47;;;;;;;;;;5008452;28;20202;-69
2023/04/20 01:03:35;;;;;;;12.03;7.37;;;;;;;;;;5008843;28;20220;-69
2023/04/20 01:06:02;;;;;;;13.00;8.30;;;;;;;;;;5023003;28;20199;-69
2023/04/20 01:08:30;;;;;;;12.77;7.47;;;;;;;;;;5008037;28;20216;-69
2023/04/20 01:10:56;;;;;;;12.80;7.63;;;;;;;;;;5008184;28;20200;-69
2023/04/20 01:13:24;;;;;;;12.50;7.97;;;;;;;;;;5008254;28;20266;-69
2023/04/20 01:15:51;;;;;;;11.83;7.47;;;;;;;;;;5008168;28;20184;-69
2023/04/20 01:18:18;;;;;;;14.10;8.47;;;;;;;;;;4990651;28;20198;-69
2023/04/20 01:20:48;;;;;;;18.27;8.70;;;;;;;;;;5008001;28;20196;-69
2023/04/20 01:23:15;;;;;;;12.33;7.47;;;;;;;;;;5022909;28;20188;-69
2023/04/20 01:25:43;;;;;;;12.07;7.90;;;;;;;;;;5008071;28;20211;-69
2023/04/20 01:28:10;;;;;;;16.13;9.40;;;;;;;;;;4990438;28;20196;-69
2023/04/20 01:30:36;;;;;;;14.10;7.90;;;;;;;;;;5008324;28;20188;-69
2023/04/20 01:33:03;;;;;;;11.70;8.00;;;;;;;;;;5006751;28;20275;-69
2023/04/20 01:35:31;;;;;;;11.43;7.23;;;;;;;;;;5008054;28;20258;-69
2023/04/20 01:37:59;;;;;;;12.27;7.23;;;;;;;;;;5008038;28;20196;-69
2023/04/20 01:40:26;;;;;;;11.83;6.80;;;;;;;;;;5007745;28;20243;-69
2023/04/20 02:18:03;;;;;;;9.60;6.20;;;;;;;;;;4973815;28;20200;-69
2023/04/20 02:20:30;;;;;;;8.53;5.83;;;;;;;;;;4991353;28;20221;-69
2023/04/20 02:22:57;;;;;;;11.43;5.37;;;;;;;;;;4991433;28;20193;-69
2023/04/20 02:25:24;;;;;;;10.07;5.47;;;;;;;;;;4991398;28;20224;-68
2023/04/20 02:27:50;;;;;;;9.53;5.43;;;;;;;;;;4990135;28;20201;-69
2023/04/20 02:30:17;;;;;;;10.13;5.70;;;;;;;;;;5006277;28;20213;-69
2023/04/20 02:32:44;;;;;;;13.17;5.80;;;;;;;;;;4991168;28;20193;-69
2023/04/20 02:35:13;;;;;;;14.80;6.37;;;;;;;;;;4973963;28;20193;-68
2023/04/20 02:37:42;;;;;;;8.80;5.60;;;;;;;;;;4991120;28;20175;-68
2023/04/20 02:40:10;;;;;;;12.47;6.47;;;;;;;;;;4991207;28;20227;-68
2023/04/20 02:42:37;;;;;;;10.20;5.73;;;;;;;;;;4990005;28;20208;-68
2023/04/20 02:45:07;;;;;;;9.93;6.13;;;;;;;;;;5005614;28;20193;-68
2023/04/20 02:47:36;;;;;;;9.13;5.60;;;;;;;;;;5006011;28;20201;-68
2023/04/20 02:50:03;;;;;;;11.07;6.13;;;;;;;;;;4990845;28;20224;-68
2023/04/20 02:52:37;;;;;;;11.13;5.93;;;;;;;;;;4989678;28;20224;-68
2023/04/20 02:55:04;;;;;;;11.30;5.90;;;;;;;;;;5006335;28;20192;-68
2023/04/20 02:57:31;;;;;;;14.23;6.47;;;;;;;;;;5006128;28;20197;-68
2023/04/20 02:59:59;;;;;;;11.13;6.10;;;;;;;;;;5005727;28;20232;-68
2023/04/20 03:02:37;;;;;;;12.40;6.37;;;;;;;;;;5005881;28;20287;-68
2023/04/20 03:05:04;;;;;;;8.70;5.97;;;;;;;;;;5005686;28;20335;-68
2023/04/20 03:07:39;;;;;;;9.27;5.97;;;;;;;;;;4973212;28;20192;-68
2023/04/20 03:10:08;;;;;;;12.00;5.90;;;;;;;;;;4989108;28;20225;-68
2023/04/20 03:13:07;;;;;;;9.77;6.03;;;;;;;;;;4947214;28;20211;-68
2023/04/20 03:15:47;;;;;;;9.40;5.97;;;;;;;;;;4989416;28;20235;-69
2023/04/20 03:18:34;;;;;;;10.47;5.80;;;;;;;;;;4992409;28;20199;-68
2023/04/20 03:21:01;;;;;;;15.30;6.47;;;;;;;;;;5025275;28;20196;-68
2023/04/20 03:23:30;;;;;;;10.47;6.33;;;;;;;;;;4992173;28;20707;-68
2023/04/20 03:26:00;;;;;;;12.87;6.50;;;;;;;;;;4992478;28;20230;-68
2023/04/20 03:28:41;;;;;;;10.70;6.30;;;;;;;;;;4992092;28;20215;-68
2023/04/20 03:31:11;;;;;;;10.87;6.43;;;;;;;;;;4991789;28;20196;-68
2023/04/20 03:33:37;;;;;;;11.50;6.93;;;;;;;;;;4992406;28;20617;-68
2023/04/20 03:36:05;;;;;;;8.67;6.07;;;;;;;;;;4992163;28;20247;-68
2023/04/20 03:38:31;;;;;;;14.53;6.60;;;;;;;;;;4991892;28;20323;-68
2023/04/20 03:40:58;;;;;;;12.00;7.10;;;;;;;;;;5009528;28;20219;-68
2023/04/20 03:43:26;;;;;;;11.40;6.70;;;;;;;;;;5008102;28;20196;-69
2023/04/20 03:45:54;;;;;;;8.20;5.87;;;;;;;;;;5009115;28;20280;-68
2023/04/20 03:48:21;;;;;;;14.60;7.17;;;;;;;;;;4998553;28;20188;-68
2023/04/20 03:50:51;;;;;;;10.57;7.10;;;;;;;;;;4988391;28;20215;-69
2023/04/20 03:53:18;;;;;;;12.87;7.20;;;;;;;;;;4989286;28;20207;-69
2023/04/20 03:55:48;;;;;;;11.67;6.37;;;;;;;;;;4998519;28;20215;-68
2023/04/20 03:58:19;;;;;;;12.93;7.07;;;;;;;;;;5006002;28;20203;-68
2023/04/20 04:01:00;;;;;;;10.13;6.23;;;;;;;;;;5031059;28;20211;-68
2023/04/20 04:03:27;;;;;;;10.83;6.17;;;;;;;;;;4987872;28;20208;-69
2023/04/20 04:05:55;;;;;;;12.07;6.57;;;;;;;;;;5015174;28;20192;-69
2023/04/20 04:08:22;;;;;;;12.00;6.93;;;;;;;;;;4988238;28;20607;-67
2023/04/20 04:10:49;;;;;;;10.37;6.43;;;;;;;;;;4987814;28;20219;-70
2023/04/20 04:13:15;;;;;;;12.63;6.53;;;;;;;;;;5020729;28;20195;-70
2023/04/20 04:15:42;;;;;;;12.13;6.37;;;;;;;;;;4988279;28;20323;-69
2023/04/20 04:18:13;;;;;;;10.50;6.10;;;;;;;;;;5016440;28;20218;-69
2023/04/20 04:20:41;;;;;;;11.60;6.70;;;;;;;;;;4984817;28;20195;-68
2023/04/20 04:23:10;;;;;;;11.83;6.40;;;;;;;;;;4989228;28;20196;-68
2023/04/20 04:25:43;;;;;;;12.63;6.67;;;;;;;;;;4993849;28;20261;-68
2023/04/20 04:28:11;;;;;;;13.90;6.63;;;;;;;;;;5005457;28;20258;-68
2023/04/20 04:30:47;;;;;;;10.50;5.57;;;;;;;;;;5020634;28;20223;-68
2023/04/20 04:33:19;;;;;;;9.17;6.03;;;;;;;;;;4987411;28;20196;-69
2023/04/20 04:35:48;;;;;;;9.97;6.10;;;;;;;;;;4971232;28;20275;-68
2023/04/20 04:38:15;;;;;;;10.40;6.03;;;;;;;;;;5020439;28;20199;-70
2023/04/20 04:40:46;;;;;;;11.03;6.07;;;;;;;;;;5019064;28;20288;-68
2023/04/20 04:43:15;;;;;;;11.00;6.30;;;;;;;;;;5019741;28;20184;-69
2023/04/20 04:45:49;;;;;;;14.63;6.40;;;;;;;;;;4990636;28;20202;-69
2023/04/20 04:48:18;;;;;;;8.63;6.20;;;;;;;;;;4986394;28;20223;-67
2023/04/20 04:50:45;;;;;;;11.73;5.97;;;;;;;;;;4988532;28;20290;-67
2023/04/20 04:53:12;;;;;;;9.67;6.30;;;;;;;;;;5009816;28;20925;-68
2023/04/20 04:55:39;;;;;;;10.80;6.23;;;;;;;;;;4987213;28;20184;-68
2023/04/20 04:58:06;;;;;;;10.33;6.47;;;;;;;;;;4987007;28;20666;-68
2023/04/20 05:00:33;;;;;;;9.10;6.33;;;;;;;;;;5004312;28;20206;-67
2023/04/20 05:03:00;;;;;;;10.50;6.10;;;;;;;;;;5004684;28;20196;-67
2023/04/20 05:05:27;;;;;;;11.83;6.80;;;;;;;;;;5005113;28;20211;-69
2023/04/20 05:07:54;;;;;;;11.33;6.17;;;;;;;;;;5005707;28;20275;-67
2023/04/20 05:10:22;;;;;;;8.07;6.57;;;;;;;;;;5001272;28;20227;-68
2023/04/20 05:12:51;;;;;;;8.60;6.57;;;;;;;;;;4972342;28;20254;-66
2023/04/20 05:15:17;;;;;;;9.27;6.73;;;;;;;;;;5029152;28;20556;-68
2023/04/20 05:17:45;;;;;;;11.10;6.97;;;;;;;;;;5005304;28;20216;-67
2023/04/20 05:20:12;;;;;;;11.70;6.77;;;;;;;;;;4995368;28;20217;-68
2023/04/20 05:22:40;;;;;;;11.43;6.80;;;;;;;;;;5004511;28;20196;-67
2023/04/20 05:25:10;;;;;;;9.27;6.93;;;;;;;;;;5003918;28;20220;-69
2023/04/20 05:27:39;;;;;;;11.03;7.27;;;;;;;;;;5005355;28;20255;-69
2023/04/20 05:30:06;;;;;;;9.70;6.80;;;;;;;;;;5019535;28;20335;-69
2023/04/20 05:32:47;;;;;;;11.00;7.07;;;;;;;;;;5004046;28;20525;-69
2023/04/20 05:35:17;;;;;;;12.57;6.90;;;;;;;;;;4993787;28;20284;-68
2023/04/20 05:37:44;;;;;;;8.87;6.97;;;;;;;;;;4986034;28;20274;-67
2023/04/20 05:40:11;;;;;;;14.00;7.00;;;;;;;;;;5017253;28;20203;-69
2023/04/20 05:42:37;;;;;;;9.53;6.77;;;;;;;;;;4986379;28;20551;-68
2023/04/20 05:45:05;;;;;;;11.93;6.80;;;;;;;;;;5001941;28;20242;-68
2023/04/20 05:47:32;;;;;;;12.70;6.83;;;;;;;;;;5002177;28;20266;-66
2023/04/20 05:49:59;;;;;;;12.33;7.10;;;;;;;;;;5004164;28;20203;-69
2023/04/20 05:52:27;;;;;;;10.77;7.40;;;;;;;;;;4988961;28;20196;-67
2023/04/20 05:54:54;;;;;;;12.73;6.97;;;;;;;;;;5003822;28;20306;-67
2023/04/20 05:57:23;;;;;;;10.90;6.83;;;;;;;;;;5006774;28;20192;-69
2023/04/20 05:59:51;;;;;;;10.97;6.80;;;;;;;;;;5005917;28;20243;-70
2023/04/20 06:02:18;;;;;;;10.03;7.30;;;;;;;;;;5006284;28;20192;-69
2023/04/20 06:04:46;;;;;;;9.80;6.97;;;;;;;;;;4989197;28;21039;-67
2023/04/20 06:07:17;;;;;;;9.37;6.97;;;;;;;;;;4990099;28;20377;-69
2023/04/20 06:09:44;;;;;;;9.37;7.30;;;;;;;;;;5007655;28;20262;-69
2023/04/20 06:12:11;;;;;;;11.97;7.03;;;;;;;;;;5005822;28;20247;-68
2023/04/20 06:14:37;;;;;;;9.43;6.60;;;;;;;;;;5007981;28;20184;-68
2023/04/20 06:17:04;;;;;;;10.67;7.10;;;;;;;;;;5006616;28;20250;-71
2023/04/20 06:19:32;;;;;;;10.67;7.00;;;;;;;;;;5007198;28;20751;-71
2023/04/20 06:22:07;;;;;;;9.53;6.87;;;;;;;;;;5005711;28;20183;-70
2023/04/20 06:24:34;;;;;;;12.93;8.93;;;;;;;;;;5021632;28;20379;-69
2023/04/20 06:27:02;;;;;;;10.90;7.00;;;;;;;;;;5005444;28;20211;-70
2023/04/20 06:29:29;;;;;;;11.00;7.00;;;;;;;;;;5020240;28;20192;-67
2023/04/20 06:31:55;;;;;;;12.53;6.63;;;;;;;;;;5003971;28;20648;-69
2023/04/20 06:34:22;;;;;;;11.77;6.73;;;;;;;;;;5018011;28;20196;-70
2023/04/20 06:36:49;;;;;;;11.07;6.80;;;;;;;;;;5010634;28;20520;-68
2023/04/20 06:39:16;;;;;;;9.47;7.17;;;;;;;;;;5026429;28;20691;-68
2023/04/20 06:41:43;;;;;;;13.43;7.00;;;;;;;;;;5005707;28;20196;-70
2023/04/20 06:44:13;;;;;;;10.53;7.37;;;;;;;;;;4997211;28;20199;-72
2023/04/20 06:46:43;;;;;;;11.23;6.97;;;;;;;;;;4992217;28;20415;-68
2023/04/20 06:49:10;;;;;;;10.67;6.80;;;;;;;;;;5004304;28;20337;-70
2023/04/20 06:51:37;;;;;;;11.90;6.87;;;;;;;;;;5007741;28;20246;-69
2023/04/20 06:54:05;;;;;;;9.83;7.03;;;;;;;;;;4980654;28;20209;-68
2023/04/20 06:56:31;;;;;;;9.80;6.83;;;;;;;;;;5011680;28;20195;-68
2023/04/20 06:59:01;;;;;;;12.23;7.37;;;;;;;;;;5010514;28;20191;-69
2023/04/20 07:01:27;;;;;;;10.93;7.00;;;;;;;;;;5013822;28;20673;-68
2023/04/20 07:03:54;;;;;;;9.00;6.93;;;;;;;;;;5004410;28;20749;-68
2023/04/20 07:06:21;;;;;;;8.37;6.70;;;;;;;;;;5004980;28;20266;-68
2023/04/20 07:08:50;;;;;;;10.20;6.70;;;;;;;;;;5005910;28;20224;-68
2023/04/20 07:11:17;;;;;;;11.00;6.73;;;;;;;;;;4997368;28;20247;-68
2023/04/20 07:13:44;;;;;;;12.70;7.03;;;;;;;;;;4988355;28;20287;-69
2023/04/20 07:16:13;;;;;;;11.33;8.37;;;;;;;;;;5004026;28;20220;-68
2023/04/20 07:18:40;;;;;;;10.17;7.47;;;;;;;;;;5004844;28;20188;-68
2023/04/20 07:21:07;;;;;;;9.57;6.63;;;;;;;;;;5005570;28;20200;-69
2023/04/20 07:23:33;;;;;;;9.43;6.97;;;;;;;;;;5006033;28;20735;-67
2023/04/20 07:26:00;;;;;;;8.17;6.80;;;;;;;;;;5005082;28;20199;-68
2023/04/20 07:28:27;;;;;;;10.53;6.53;;;;;;;;;;4996532;28;20199;-66
2023/04/20 07:30:53;;;;;;;8.57;6.33;;;;;;;;;;5005693;28;20212;-65
2023/04/20 07:33:20;;;;;;;9.73;7.10;;;;;;;;;;5013220;28;20713;-67
2023/04/20 07:35:47;;;;;;;10.97;7.10;;;;;;;;;;5005917;28;20189;-68
2023/04/20 07:38:14;;;;;;;10.23;6.63;;;;;;;;;;5005960;28;20206;-69
2023/04/20 07:40:44;;;;;;;12.17;6.27;;;;;;;;;;4988483;28;20192;-68
2023/04/20 07:43:11;;;;;;;10.83;6.90;;;;;;;;;;4987163;28;20223;-66
2023/04/20 07:45:41;;;;;;;9.97;6.93;;;;;;;;;;5006614;28;20188;-66
2023/04/20 07:48:08;;;;;;;11.33;7.23;;;;;;;;;;4988445;28;20651;-67
2023/04/20 07:50:35;;;;;;;9.93;6.83;;;;;;;;;;5005653;28;20258;-65
2023/04/20 07:53:02;;;;;;;7.77;6.70;;;;;;;;;;5005393;28;20223;-65
2023/04/20 07:55:29;;;;;;;9.20;6.40;;;;;;;;;;5013995;28;20231;-65
2023/04/20 07:57:56;;;;;;;10.50;6.47;;;;;;;;;;4990744;28;20295;-66
2023/04/20 08:00:23;;;;;;;9.67;7.00;;;;;;;;;;5004866;28;20200;-67
2023/04/20 08:02:52;;;;;;;10.70;7.23;;;;;;;;;;5021051;28;20200;-67
2023/04/20 08:05:19;;;;;;;9.60;6.87;;;;;;;;;;5001664;28;20191;-68
2023/04/20 08:07:45;;;;;;;9.90;7.00;;;;;;;;;;5000757;28;20827;-67
2023/04/20 08:10:12;;;;;;;10.77;7.10;;;;;;;;;;5020302;28;20251;-67
2023/04/20 08:12:40;;;;;;;12.90;7.40;;;;;;;;;;4988334;28;20192;-67
2023/04/20 08:15:07;;;;;;;8.67;6.20;;;;;;;;;;5005123;28;20203;-66
2023/04/20 08:17:35;;;;;;;7.77;6.40;;;;;;;;;;4997642;28;20301;-66
2023/04/20 08:20:04;;;;;;;9.17;6.77;;;;;;;;;;5006274;28;20290;-67
2023/04/20 08:22:32;;;;;;;10.50;6.90;;;;;;;;;;5005968;28;20263;-68
2023/04/20 08:25:01;;;;;;;10.87;7.00;;;;;;;;;;5005877;28;20579;-68
2023/04/20 08:27:29;;;;;;;8.83;7.10;;;;;;;;;;5020460;28;20200;-69
2023/04/20 08:29:56;;;;;;;10.47;6.73;;;;;;;;;;5021042;28;20192;-68
2023/04/20 08:32:25;;;;;;;9.97;7.10;;;;;;;;;;4993491;28;20203;-69
2023/04/20 08:34:53;;;;;;;12.33;6.77;;;;;;;;;;5025249;28;20203;-68
2023/04/20 08:37:22;;;;;;;9.40;6.90;;;;;;;;;;5006140;28;20283;-69
2023/04/20 08:39:48;;;;;;;10.67;7.13;;;;;;;;;;5008022;28;20547;-69
2023/04/20 08:42:15;;;;;;;10.10;7.20;;;;;;;;;;4990332;28;20180;-68
2023/04/20 08:44:42;;;;;;;9.83;6.73;;;;;;;;;;5017099;28;20188;-72
2023/04/20 08:47:10;;;;;;;9.57;6.80;;;;;;;;;;4990368;28;20287;-71
2023/04/20 08:49:40;;;;;;;9.73;7.10;;;;;;;;;;5008757;28;20271;-70
2023/04/20 08:52:09;;;;;;;11.83;7.57;;;;;;;;;;5007567;28;20219;-70
2023/04/20 08:54:37;;;;;;;12.17;6.80;;;;;;;;;;4990540;28;20683;-69
2023/04/20 08:57:15;;;;;;;10.80;6.90;;;;;;;;;;5006507;28;20302;-68
2023/04/20 08:59:42;;;;;;;13.33;6.80;;;;;;;;;;4988515;28;20244;-66
2023/04/20 09:02:10;;;;;;;14.10;7.07;;;;;;;;;;4990504;28;20196;-67
2023/04/20 09:04:38;;;;;;;8.63;7.03;;;;;;;;;;5008689;28;20195;-67
2023/04/20 09:07:05;;;;;;;10.30;6.93;;;;;;;;;;5006111;28;20218;-68
2023/04/20 09:09:32;;;;;;;9.23;7.00;;;;;;;;;;4990104;28;20255;-68
2023/04/20 09:12:03;;;;;;;9.60;6.90;;;;;;;;;;4973531;28;20220;-68
2023/04/20 09:14:41;;;;;;;11.43;7.10;;;;;;;;;;5007477;28;20207;-66
2023/04/20 09:17:12;;;;;;;10.73;6.80;;;;;;;;;;5021802;28;20253;-69
2023/04/20 09:19:42;;;;;;;12.50;7.57;;;;;;;;;;5008215;28;20852;-69
2023/04/20 09:22:08;;;;;;;13.50;7.27;;;;;;;;;;5007323;28;20299;-67
2023/04/20 09:24:36;;;;;;;10.30;7.10;;;;;;;;;;5010771;28;20256;-69
2023/04/20 09:27:15;;;;;;;11.23;7.40;;;;;;;;;;5023105;28;20215;-70
2023/04/20 09:29:44;;;;;;;10.23;7.40;;;;;;;;;;4981931;28;20291;-68
2023/04/20 09:32:24;;;;;;;10.30;7.00;;;;;;;;;;5024600;28;20243;-67
2023/04/20 09:34:51;;;;;;;11.00;7.20;;;;;;;;;;5008991;28;20192;-68
2023/04/20 09:37:18;;;;;;;12.27;7.80;;;;;;;;;;4990619;28;20243;-65
2023/04/20 09:39:46;;;;;;;8.80;7.00;;;;;;;;;;5010454;28;20190;-67
2023/04/20 09:42:13;;;;;;;8.83;7.30;;;;;;;;;;5022820;28;20191;-68
2023/04/20 09:44:42;;;;;;;13.20;7.27;;;;;;;;;;5022175;28;20287;-70
2023/04/20 09:47:14;;;;;;;13.20;7.60;;;;;;;;;;5016401;28;20642;-69
2023/04/20 09:49:43;;;;;;;10.33;7.03;;;;;;;;;;5017801;28;20218;-70
2023/04/20 09:52:10;;;;;;;10.77;7.27;;;;;;;;;;5029444;28;20302;-69
2023/04/20 09:54:36;;;;;;;15.57;7.30;;;;;;;;;;5030093;28;20187;-70
2023/04/20 09:57:03;;;;;;;9.27;6.90;;;;;;;;;;5003533;28;20230;-69
2023/04/20 09:59:30;;;;;;;8.73;6.90;;;;;;;;;;5023742;28;20199;-69
2023/04/20 10:01:57;;;;;;;10.77;6.43;;;;;;;;;;5010666;28;20682;-68
2023/04/20 10:04:24;;;;;;;9.03;6.73;;;;;;;;;;5028525;28;20277;-69
2023/04/20 10:06:53;;;;;;;12.43;7.23;;;;;;;;;;5028120;28;20187;-69
2023/04/20 10:09:21;;;;;;;10.27;6.83;;;;;;;;;;5028789;28;20278;-68
2023/04/20 10:11:47;;;;;;;10.77;7.60;;;;;;;;;;5027721;28;20217;-70
2023/04/20 10:14:21;;;;;;;11.03;7.00;;;;;;;;;;4996133;28;20281;-72
2023/04/20 10:16:59;;;;;;;9.67;7.97;;;;;;;;;;5012466;28;20665;-69
2023/04/20 10:19:36;;;;;;;10.27;7.90;;;;;;;;;;5026887;28;20263;-68
2023/04/20 10:22:03;;;;;;;11.73;7.67;;;;;;;;;;5030421;28;20187;-67
2023/04/20 10:24:30;;;;;;;12.37;8.10;;;;;;;;;;5028303;28;20195;-68
2023/04/20 10:26:57;;;;;;;10.10;7.70;;;;;;;;;;5047551;28;20223;-68
2023/04/20 10:29:24;;;;;;;12.70;7.10;;;;;;;;;;5039675;28;20195;-68
2023/04/20 10:31:52;;;;;;;9.80;7.40;;;;;;;;;;5029872;28;20243;-68
2023/04/20 10:34:29;;;;;;;12.90;7.33;;;;;;;;;;5029368;28;20190;-69
2023/04/20 10:37:06;;;;;;;9.70;7.40;;;;;;;;;;5017529;28;20215;-68
2023/04/20 10:39:33;;;;;;;10.17;7.40;;;;;;;;;;5038840;28;20187;-71
2023/04/20 10:42:01;;;;;;;10.93;7.37;;;;;;;;;;5029453;28;20266;-72
2023/04/20 10:44:28;;;;;;;9.77;7.07;;;;;;;;;;5027791;28;20582;-70
2023/04/20 10:46:55;;;;;;;7.87;6.67;;;;;;;;;;5013956;28;20195;-69
2023/04/20 10:49:25;;;;;;;11.27;7.10;;;;;;;;;;5028548;28;20206;-70
2023/04/20 10:51:52;;;;;;;9.70;7.50;;;;;;;;;;5029000;28;20317;-69
2023/04/20 10:54:22;;;;;;;24.00;9.10;;;;;;;;;;5029167;28;20701;-71
2023/04/20 10:56:50;;;;;;;9.87;7.20;;;;;;;;;;5010513;28;20195;-68
2023/04/20 10:59:19;;;;;;;12.13;7.00;;;;;;;;;;4986500;28;20326;-68
2023/04/20 11:01:47;;;;;;;9.27;6.40;;;;;;;;;;5030734;28;20946;-70
2023/04/20 11:04:14;;;;;;;9.13;6.97;;;;;;;;;;5017883;28;20283;-70
2023/04/20 11:06:46;;;;;;;9.27;6.80;;;;;;;;;;5013873;28;20294;-69
2023/04/20 11:09:20;;;;;;;10.20;6.50;;;;;;;;;;5022041;28;20547;-67
2023/04/20 11:12:00;;;;;;;11.50;6.80;;;;;;;;;;5026642;28;20745;-69
2023/04/20 11:14:28;;;;;;;12.80;6.37;;;;;;;;;;5025022;28;20191;-68
2023/04/20 11:16:55;;;;;;;18.87;8.57;;;;;;;;;;5025885;28;20257;-75
2023/04/20 11:19:23;;;;;;;8.60;6.37;;;;;;;;;;5014312;28;20199;-73
2023/04/20 11:21:50;;;;;;;9.93;6.53;;;;;;;;;;5013451;28;20307;-72
2023/04/20 11:24:18;;;;;;;8.97;6.33;;;;;;;;;;5036129;28;20188;-72
2023/04/20 11:26:48;;;;;;;10.07;7.13;;;;;;;;;;5014425;28;20223;-71
2023/04/20 11:29:32;;;;;;;10.90;6.43;;;;;;;;;;5013660;28;20657;-72
2023/04/20 11:31:59;;;;;;;9.63;7.17;;;;;;;;;;5026169;28;20216;-70
2023/04/20 11:34:26;;;;;;;8.43;6.63;;;;;;;;;;5021387;28;20306;-68
2023/04/20 11:36:55;;;;;;;10.57;6.43;;;;;;;;;;5013063;28;20304;-70
2023/04/20 11:39:23;;;;;;;8.40;6.20;;;;;;;;;;5033857;28;20812;-71
2023/04/20 11:41:51;;;;;;;8.67;6.60;;;;;;;;;;4994362;28;20906;-68
2023/04/20 11:44:27;;;;;;;12.47;6.80;;;;;;;;;;5040301;28;20215;-69
2023/04/20 11:46:57;;;;;;;9.40;6.30;;;;;;;;;;5014684;28;20188;-67
2023/04/20 11:49:24;;;;;;;11.63;6.57;;;;;;;;;;5032077;28;20207;-68
2023/04/20 11:51:51;;;;;;;8.43;6.20;;;;;;;;;;5010734;28;20202;-68
2023/04/20 11:54:18;;;;;;;9.83;6.30;;;;;;;;;;5008049;28;20183;-68
2023/04/20 11:56:46;;;;;;;9.27;6.43;;;;;;;;;;5027757;28;20207;-68
2023/04/20 11:59:15;;;;;;;12.07;6.70;;;;;;;;;;5009502;28;20191;-67
2023/04/20 12:01:42;;;;;;;8.40;5.73;;;;;;;;;;5015444;28;20235;-72
2023/04/20 12:04:09;;;;;;;9.53;5.90;;;;;;;;;;5027229;28;20513;-69
2023/04/20 12:06:36;;;;;;;9.73;6.90;;;;;;;;;;5016661;28;20198;-69
2023/04/20 12:09:05;;;;;;;9.67;6.43;;;;;;;;;;5033486;28;20179;-68
2023/04/20 12:11:32;;;;;;;8.27;5.60;;;;;;;;;;5025480;28;20210;-68
2023/04/20 12:13:59;;;;;;;10.73;6.43;;;;;;;;;;5024735;28;20187;-70
2023/04/20 12:16:27;;;;;;;7.63;6.07;;;;;;;;;;4998971;28;20212;-71
2023/04/20 12:18:55;;;;;;;9.60;6.60;;;;;;;;;;4999792;28;20649;-70
2023/04/20 12:21:22;;;;;;;8.93;5.90;;;;;;;;;;4985544;28;20188;-74
2023/04/20 12:23:50;;;;;;;9.07;6.10;;;;;;;;;;5007197;28;20803;-70
2023/04/20 12:26:17;;;;;;;10.67;6.40;;;;;;;;;;5005914;28;20196;-69
2023/04/20 12:28:44;;;;;;;9.20;6.80;;;;;;;;;;5007169;28;20571;-70
2023/04/20 12:31:11;;;;;;;9.30;6.63;;;;;;;;;;5003717;28;21069;-70
2023/04/20 12:33:38;;;;;;;12.67;6.97;;;;;;;;;;5008647;28;20198;-70
2023/04/20 12:36:05;;;;;;;12.37;6.00;;;;;;;;;;4992956;28;20255;-71
2023/04/20 12:38:35;;;;;;;9.47;6.70;;;;;;;;;;5003360;28;20192;-69
2023/04/20 12:41:05;;;;;;;9.77;6.73;;;;;;;;;;5006463;28;20643;-70
2023/04/20 12:43:35;;;;;;;14.03;6.90;;;;;;;;;;5006330;28;20196;-69
2023/04/20 12:46:04;;;;;;;9.57;6.13;;;;;;;;;;5000177;28;20184;-71
2023/04/20 12:48:31;;;;;;;10.30;6.33;;;;;;;;;;4969770;28;20204;-69
2023/04/20 12:50:58;;;;;;;12.60;6.93;;;;;;;;;;5006624;28;20199;-69
2023/04/20 12:53:27;;;;;;;15.03;7.30;;;;;;;;;;5005610;28;20208;-70
2023/04/20 12:55:54;;;;;;;12.30;7.30;;;;;;;;;;5006264;28;20184;-68
2023/04/20 12:58:27;;;;;;;9.97;6.97;;;;;;;;;;5005949;28;20210;-68
2023/04/20 13:00:55;;;;;;;9.60;6.37;;;;;;;;;;5007098;28;20218;-66
2023/04/20 13:03:22;;;;;;;10.90;6.80;;;;;;;;;;4990766;28;20228;-66
2023/04/20 13:05:49;;;;;;;8.77;6.90;;;;;;;;;;5006323;28;20191;-66
2023/04/20 13:08:18;;;;;;;13.57;7.47;;;;;;;;;;5006408;28;20207;-66
2023/04/20 13:10:45;;;;;;;10.63;7.00;;;;;;;;;;5006546;28;20191;-66
2023/04/20 13:13:13;;;;;;;10.57;7.20;;;;;;;;;;5005025;28;20221;-65
2023/04/20 13:15:41;;;;;;;10.17;7.30;;;;;;;;;;5006977;28;20663;-66
2023/04/20 13:18:08;;;;;;;12.27;7.30;;;;;;;;;;5023051;28;20199;-67
2023/04/20 13:20:35;;;;;;;12.47;7.47;;;;;;;;;;5034038;28;20188;-68
2023/04/20 13:23:02;;;;;;;11.50;7.50;;;;;;;;;;5029277;28;20762;-68
2023/04/20 13:25:31;;;;;;;8.57;6.90;;;;;;;;;;5031705;28;20198;-67
2023/04/20 13:27:58;;;;;;;10.47;7.13;;;;;;;;;;5028017;28;20186;-66
2023/04/20 13:30:25;;;;;;;35.53;9.67;;;;;;;;;;5031503;28;20187;-68
2023/04/20 13:32:52;;;;;;;10.60;7.60;;;;;;;;;;5028878;28;20302;-67
2023/04/20 13:35:19;;;;;;;15.13;7.77;;;;;;;;;;5037597;28;20191;-67
2023/04/20 13:37:47;;;;;;;9.77;7.00;;;;;;;;;;5030470;28;20191;-68
2023/04/20 13:40:14;;;;;;;9.57;7.30;;;;;;;;;;5026460;28;20272;-68
2023/04/20 13:42:42;;;;;;;11.47;7.37;;;;;;;;;;5026040;28;20222;-68
2023/04/20 13:45:10;;;;;;;12.07;7.30;;;;;;;;;;5025216;28;20186;-67
2023/04/20 13:47:37;;;;;;;11.27;7.20;;;;;;;;;;5029450;28;20793;-68
2023/04/20 13:50:05;;;;;;;13.30;6.70;;;;;;;;;;5044847;28;20686;-65
2023/04/20 13:52:35;;;;;;;11.33;6.87;;;;;;;;;;5033027;28;20207;-67
2023/04/20 13:55:03;;;;;;;14.37;7.07;;;;;;;;;;5037522;28;20597;-67
2023/04/20 13:57:32;;;;;;;10.67;7.10;;;;;;;;;;5030814;28;20191;-67
2023/04/20 14:00:00;;;;;;;10.07;7.13;;;;;;;;;;5042611;28;20739;-67
2023/04/20 14:02:30;;;;;;;11.57;6.83;;;;;;;;;;5013771;28;20655;-68
2023/04/20 14:04:57;;;;;;;21.23;7.60;;;;;;;;;;5026807;28;20195;-68
2023/04/20 14:07:25;;;;;;;14.83;7.43;;;;;;;;;;5027416;28;20187;-69
2023/04/20 14:09:55;;;;;;;10.20;6.87;;;;;;;;;;5027582;28;20210;-69
2023/04/20 14:12:22;;;;;;;8.03;6.77;;;;;;;;;;5034343;28;20238;-69
2023/04/20 14:14:51;;;;;;;13.93;6.50;;;;;;;;;;5037834;28;20697;-68
2023/04/20 14:17:17;;;;;;;9.67;6.70;;;;;;;;;;5031317;28;20310;-70
2023/04/20 14:19:45;;;;;;;9.27;6.27;;;;;;;;;;5013754;28;20289;-69
2023/04/20 14:22:12;;;;;;;11.70;6.70;;;;;;;;;;5031876;28;20634;-66
2023/04/20 14:24:39;;;;;;;11.73;6.50;;;;;;;;;;5041087;28;20301;-66
2023/04/20 14:27:06;;;;;;;11.07;6.40;;;;;;;;;;5030102;28;20191;-66
2023/04/20 14:29:33;;;;;;;9.27;6.87;;;;;;;;;;5039154;28;20192;-67
2023/04/20 14:32:04;;;;;;;10.57;6.27;;;;;;;;;;5033735;28;20207;-66
2023/04/20 14:34:31;;;;;;;22.90;7.27;;;;;;;;;;5042612;28;20191;-66
2023/04/20 14:36:57;;;;;;;8.73;6.43;;;;;;;;;;5044938;28;20647;-67
2023/04/20 14:39:24;;;;;;;9.43;6.60;;;;;;;;;;5042593;28;20270;-67
2023/04/20 14:41:51;;;;;;;9.87;6.57;;;;;;;;;;5006806;28;20696;-67
2023/04/20 14:44:21;;;;;;;7.37;5.93;;;;;;;;;;5026901;28;20223;-70
2023/04/20 14:46:48;;;;;;;9.63;6.10;;;;;;;;;;5043416;28;20194;-68
2023/04/20 14:49:17;;;;;;;8.43;6.10;;;;;;;;;;5033330;28;20973;-68
2023/04/20 14:51:45;;;;;;;9.10;5.93;;;;;;;;;;5039723;28;20195;-68
2023/04/20 14:54:12;;;;;;;11.13;6.07;;;;;;;;;;4995539;28;20639;-68
2023/04/20 14:56:39;;;;;;;7.43;5.50;;;;;;;;;;5030069;28;20195;-69
2023/04/20 14:59:06;;;;;;;8.23;6.20;;;;;;;;;;5035347;28;20235;-67
2023/04/20 15:01:32;;;;;;;7.67;5.87;;;;;;;;;;5011650;28;20537;-68
2023/04/20 15:04:00;;;;;;;9.67;5.50;;;;;;;;;;5023683;28;20246;-68
2023/04/20 15:06:31;;;;;;;7.20;5.70;;;;;;;;;;5023659;28;20215;-68
2023/04/20 15:08:58;;;;;;;10.80;6.20;;;;;;;;;;5013365;28;20682;-67
2023/04/20 15:11:34;;;;;;;19.73;7.30;;;;;;;;;;5037894;28;20194;-66
2023/04/20 15:14:02;;;;;;;8.77;5.63;;;;;;;;;;5032799;28;20429;-68
2023/04/20 15:16:28;;;;;;;9.63;5.50;;;;;;;;;;5030498;28;20235;-66